createdAt,value
2022-12-11T00:01:10.549Z,5.26
2022-12-11T00:04:25.583Z,5.22
2022-12-11T00:07:34.248Z,5.47
2022-12-11T00:10:42.614Z,5.47
2022-12-11T00:14:04.662Z,5.40
2022-12-11T00:17:12.688Z,5.23
2022-12-11T00:20:21.912Z,5.07
2022-12-11T00:23:30.596Z,5.13
2022-12-11T00:26:39.490Z,5.06
2022-12-11T00:29:54.643Z,4.89
2022-12-11T00:32:56.459Z,5.01
2022-12-11T00:36:19.786Z,5.04
2022-12-11T00:39:21.646Z,5.09
2022-12-11T00:42:36.737Z,5.01
2022-12-11T00:45:47.690Z,5.06
2022-12-11T00:48:56.272Z,4.96
2022-12-11T00:52:04.962Z,4.84
2022-12-11T00:55:13.262Z,4.81
2022-12-11T00:58:21.614Z,4.89
2022-12-11T01:01:30.389Z,4.80
2022-12-11T01:04:41.598Z,4.79
2022-12-11T01:07:50.216Z,4.75
2022-12-11T01:10:58.627Z,4.74
2022-12-11T01:14:13.985Z,4.65
2022-12-11T01:17:22.630Z,4.71
2022-12-11T01:20:31.623Z,4.73
2022-12-11T01:23:39.659Z,4.71
2022-12-11T01:26:48.282Z,4.74
2022-12-11T01:29:56.801Z,4.63
2022-12-11T01:33:05.525Z,4.67
2022-12-11T01:36:24.585Z,4.55
2022-12-11T01:39:32.906Z,4.49
2022-12-11T01:42:41.283Z,4.60
2022-12-11T01:45:53.715Z,4.43
2022-12-11T01:49:06.285Z,4.25
2022-12-11T01:52:20.619Z,4.34
2022-12-11T01:55:29.590Z,4.44
2022-12-11T01:58:40.646Z,4.35
2022-12-11T02:02:03.365Z,4.34
2022-12-11T02:05:13.743Z,4.37
2022-12-11T02:08:28.673Z,4.40
2022-12-11T02:11:53.678Z,4.44
2022-12-11T02:15:37.711Z,4.37
2022-12-11T02:19:07.817Z,4.18
2022-12-11T02:22:23.702Z,4.31
2022-12-11T02:25:48.773Z,3.98
2022-12-11T02:29:07.692Z,4.11
2022-12-11T02:32:30.750Z,4.09
2022-12-11T02:35:42.334Z,4.06
2022-12-11T02:38:56.787Z,3.95
2022-12-11T02:42:13.676Z,4.05
2022-12-11T02:45:17.823Z,4.06
2022-12-11T02:48:33.698Z,3.80
2022-12-11T02:51:44.150Z,4.04
2022-12-11T02:54:54.822Z,4.04
2022-12-11T02:58:12.896Z,4.05
2022-12-11T03:01:21.766Z,3.84
2022-12-11T03:04:30.649Z,3.80
2022-12-11T03:07:42.939Z,3.87
2022-12-11T03:10:51.511Z,3.92
2022-12-11T03:14:07.658Z,3.95
2022-12-11T03:17:22.834Z,3.82
2022-12-11T03:20:51.741Z,3.84
2022-12-11T03:24:09.751Z,3.89
2022-12-11T03:27:33.355Z,3.92
2022-12-11T03:30:49.875Z,3.89
2022-12-11T03:34:00.885Z,3.76
2022-12-11T03:37:11.534Z,3.64
2022-12-11T03:40:23.757Z,3.65
2022-12-11T03:43:34.001Z,3.67
2022-12-11T03:46:50.702Z,3.50
2022-12-11T03:49:54.110Z,3.63
2022-12-11T03:53:10.771Z,3.58
2022-12-11T03:56:20.766Z,3.48
2022-12-11T03:59:39.723Z,3.38
2022-12-11T04:02:42.585Z,3.48
2022-12-11T04:05:59.729Z,3.49
2022-12-11T04:09:08.699Z,3.48
2022-12-11T04:12:24.703Z,3.51
2022-12-11T04:15:33.897Z,3.31
2022-12-11T04:18:48.714Z,3.22
2022-12-11T04:21:56.745Z,3.14
2022-12-11T04:25:13.991Z,3.30
2022-12-11T04:28:22.315Z,3.38
2022-12-11T04:31:30.709Z,3.28
2022-12-11T04:34:39.390Z,3.29
2022-12-11T04:37:53.698Z,3.19
2022-12-11T04:41:06.416Z,3.06
2022-12-11T04:44:20.722Z,3.21
2022-12-11T04:47:28.743Z,3.08
2022-12-11T04:50:43.929Z,3.24
2022-12-11T04:53:52.949Z,3.28
2022-12-11T04:57:01.727Z,3.23
2022-12-11T05:00:11.965Z,3.22
2022-12-11T05:03:26.750Z,3.31
2022-12-11T05:06:28.702Z,3.35
2022-12-11T05:09:43.843Z,3.28
2022-12-11T05:12:51.784Z,3.27
2022-12-11T05:16:15.811Z,3.19
2022-12-11T05:19:24.759Z,3.32
2022-12-11T05:22:42.765Z,3.28
2022-12-11T05:25:52.117Z,3.37
2022-12-11T05:29:07.710Z,3.26
2022-12-11T05:32:15.818Z,3.22
2022-12-11T05:35:24.371Z,3.24
2022-12-11T05:38:39.905Z,3.24
2022-12-11T05:41:48.734Z,3.34
2022-12-11T05:45:03.774Z,3.13
2022-12-11T05:48:06.118Z,3.13
2022-12-11T05:51:22.746Z,3.16
2022-12-11T05:54:24.511Z,3.17
2022-12-11T05:57:38.725Z,3.14
2022-12-11T06:00:48.795Z,3.15
2022-12-11T06:04:04.757Z,3.11
2022-12-11T06:07:14.240Z,2.99
2022-12-11T06:10:22.909Z,2.99
2022-12-11T06:13:37.765Z,3.11
2022-12-11T06:16:39.821Z,2.92
2022-12-11T06:19:55.798Z,2.91
2022-12-11T06:23:04.741Z,2.83
2022-12-11T06:26:14.457Z,2.99
2022-12-11T06:29:22.782Z,3.04
2022-12-11T06:32:31.353Z,3.12
2022-12-11T06:35:42.323Z,2.98
2022-12-11T06:38:58.830Z,3.01
2022-12-11T06:42:06.855Z,2.94
2022-12-11T06:45:21.780Z,3.15
2022-12-11T06:48:30.882Z,3.15
2022-12-11T06:51:39.669Z,3.13
2022-12-11T06:54:47.811Z,2.86
2022-12-11T06:58:02.782Z,2.99
2022-12-11T07:01:25.804Z,3.04
2022-12-11T07:04:27.934Z,3.03
2022-12-11T07:07:42.804Z,2.91
2022-12-11T07:10:50.852Z,3.04
2022-12-11T07:14:12.878Z,3.11
2022-12-11T07:17:21.561Z,3.06
2022-12-11T07:20:32.065Z,3.20
2022-12-11T07:23:47.775Z,3.25
2022-12-11T07:26:55.882Z,3.26
2022-12-11T07:30:11.825Z,3.27
2022-12-11T07:33:20.807Z,3.30
2022-12-11T07:36:30.746Z,3.36
2022-12-11T07:39:39.839Z,3.24
2022-12-11T07:42:48.506Z,3.33
2022-12-11T07:45:56.865Z,3.34
2022-12-11T07:49:06.729Z,3.60
2022-12-11T07:52:15.810Z,3.63
2022-12-11T07:55:24.374Z,3.53
2022-12-11T07:58:38.877Z,3.49
2022-12-11T08:01:47.083Z,3.72
2022-12-11T08:05:01.793Z,3.41
2022-12-11T08:08:10.485Z,3.52
2022-12-11T08:11:20.830Z,3.56
2022-12-11T08:14:42.837Z,3.40
2022-12-11T08:17:51.473Z,3.49
2022-12-11T08:21:06.810Z,3.58
2022-12-11T08:24:21.892Z,3.38
2022-12-11T08:27:23.742Z,3.41
2022-12-11T08:30:39.908Z,3.40
2022-12-11T08:33:56.864Z,3.56
2022-12-11T08:37:04.777Z,3.65
2022-12-11T08:40:20.830Z,3.70
2022-12-11T08:43:29.420Z,3.57
2022-12-11T08:46:43.895Z,3.62
2022-12-11T08:49:45.814Z,3.74
2022-12-11T08:53:00.807Z,3.68
2022-12-11T08:56:05.976Z,3.61
2022-12-11T08:59:20.867Z,3.61
2022-12-11T09:02:22.636Z,3.77
2022-12-11T09:05:37.878Z,3.76
2022-12-11T09:08:40.902Z,3.57
2022-12-11T09:11:56.806Z,3.72
2022-12-11T09:15:18.826Z,3.71
2022-12-11T09:18:27.467Z,3.73
2022-12-11T09:21:36.960Z,3.68
2022-12-11T09:24:51.867Z,3.66
2022-12-11T09:27:59.834Z,3.56
2022-12-11T09:31:19.651Z,3.58
2022-12-11T09:34:29.576Z,3.67
2022-12-11T09:37:44.834Z,3.63
2022-12-11T09:40:54.078Z,3.57
2022-12-11T09:44:22.904Z,3.73
2022-12-11T09:47:46.906Z,3.96
2022-12-11T09:50:51.588Z,3.77
2022-12-11T09:54:10.222Z,3.77
2022-12-11T09:57:38.888Z,3.63
2022-12-11T10:01:05.040Z,3.80
2022-12-11T10:04:49.887Z,3.79
2022-12-11T10:08:26.898Z,3.86
2022-12-11T10:12:04.879Z,3.74
2022-12-11T10:15:40.964Z,3.64
2022-12-11T10:18:42.861Z,3.80
2022-12-11T10:21:59.887Z,3.84
2022-12-11T10:25:13.084Z,3.76
2022-12-11T10:28:21.950Z,3.58
2022-12-11T10:31:47.862Z,3.65
2022-12-11T10:35:08.993Z,3.77
2022-12-11T10:38:17.016Z,3.97
2022-12-11T10:41:47.963Z,3.80
2022-12-11T10:45:00.252Z,3.76
2022-12-11T10:48:17.885Z,3.68
2022-12-11T10:51:36.577Z,3.74
2022-12-11T10:54:52.930Z,3.61
2022-12-11T10:57:59.990Z,3.50
2022-12-11T11:01:21.929Z,3.59
2022-12-11T11:04:31.581Z,3.77
2022-12-11T11:07:45.970Z,3.76
2022-12-11T11:10:59.510Z,3.60
2022-12-11T11:14:30.926Z,3.66
2022-12-11T11:17:54.565Z,3.64
2022-12-11T11:21:04.088Z,3.70
2022-12-11T11:24:12.910Z,3.70
2022-12-11T11:27:35.315Z,3.69
2022-12-11T11:31:10.995Z,3.71
2022-12-11T11:34:27.935Z,3.89
2022-12-11T11:37:38.851Z,3.82
2022-12-11T11:41:18.696Z,3.79
2022-12-11T11:44:43.900Z,3.84
2022-12-11T11:48:15.971Z,3.85
2022-12-11T11:51:37.662Z,3.69
2022-12-11T11:54:55.893Z,3.78
2022-12-11T11:58:16.843Z,3.72
2022-12-11T12:01:26.902Z,3.73
2022-12-11T12:04:35.507Z,3.72
2022-12-11T12:08:07.945Z,3.92
2022-12-11T12:11:36.463Z,4.00
2022-12-11T12:15:07.931Z,4.15
2022-12-11T12:18:46.087Z,4.19
2022-12-11T12:21:52.702Z,4.06
2022-12-11T12:25:30.974Z,3.96
2022-12-11T12:29:16.168Z,4.01
2022-12-11T12:32:43.567Z,4.14
2022-12-11T12:36:07.445Z,4.09
2022-12-11T12:39:38.948Z,4.19
2022-12-11T12:43:04.440Z,4.07
2022-12-11T12:46:38.927Z,4.08
2022-12-11T12:49:58.225Z,4.12
2022-12-11T12:53:06.906Z,4.11
2022-12-11T12:56:16.486Z,4.08
2022-12-11T12:59:28.114Z,3.95
2022-12-11T13:02:53.951Z,4.04
2022-12-11T13:06:08.203Z,4.09
2022-12-11T13:09:26.010Z,4.08
2022-12-11T13:12:49.946Z,4.10
2022-12-11T13:16:30.971Z,4.02
2022-12-11T13:19:46.127Z,3.93
2022-12-11T13:23:14.990Z,3.98
2022-12-11T13:26:39.981Z,4.13
2022-12-11T13:29:55.026Z,4.20
2022-12-11T13:33:20.942Z,4.22
2022-12-11T13:36:31.539Z,4.18
2022-12-11T13:39:46.986Z,4.26
2022-12-11T13:43:01.615Z,4.21
2022-12-11T13:46:13.999Z,3.97
2022-12-11T13:49:41.049Z,3.95
2022-12-11T13:52:54.733Z,3.91
2022-12-11T13:56:10.014Z,3.82
2022-12-11T13:59:23.746Z,3.68
2022-12-11T14:02:44.079Z,3.93
2022-12-11T14:05:45.923Z,3.92
2022-12-11T14:09:05.247Z,3.77
2022-12-11T14:12:20.762Z,3.79
2022-12-11T14:15:43.990Z,3.72
2022-12-11T14:18:52.970Z,3.76
2022-12-11T14:22:12.046Z,3.33
2022-12-11T14:25:23.309Z,3.24
2022-12-11T14:28:49.011Z,3.33
2022-12-11T14:31:51.323Z,3.30
2022-12-11T14:35:11.041Z,3.40
2022-12-11T14:38:20.077Z,3.41
2022-12-11T14:41:57.070Z,3.40
2022-12-11T14:45:16.833Z,3.38
2022-12-11T14:48:37.139Z,3.22
2022-12-11T14:51:48.046Z,3.40
2022-12-11T14:55:03.143Z,3.43
2022-12-11T14:58:30.026Z,3.58
2022-12-11T15:01:41.004Z,3.63
2022-12-11T15:05:01.970Z,3.53
2022-12-11T15:08:33.009Z,3.22
2022-12-11T15:11:48.073Z,3.27
2022-12-11T15:15:06.026Z,3.26
2022-12-11T15:18:33.993Z,3.13
2022-12-11T15:21:36.811Z,3.21
2022-12-11T15:24:53.042Z,3.14
2022-12-11T15:27:58.407Z,3.12
2022-12-11T15:31:32.008Z,3.24
2022-12-11T15:34:44.946Z,3.13
2022-12-11T15:38:01.109Z,3.20
2022-12-11T15:41:26.048Z,3.07
2022-12-11T15:44:28.173Z,3.07
2022-12-11T15:47:43.027Z,2.91
2022-12-11T15:50:52.062Z,3.09
2022-12-11T15:54:00.806Z,3.04
2022-12-11T15:57:13.068Z,3.05
2022-12-11T16:00:32.100Z,3.08
2022-12-11T16:03:41.349Z,3.23
2022-12-11T16:06:50.637Z,3.18
2022-12-11T16:09:59.147Z,3.08
2022-12-11T16:13:07.883Z,3.18
2022-12-11T16:16:31.046Z,3.11
2022-12-11T16:19:33.301Z,3.21
2022-12-11T16:22:48.106Z,3.06
2022-12-11T16:25:57.066Z,3.00
2022-12-11T16:29:12.170Z,3.02
2022-12-11T16:32:21.250Z,3.12
2022-12-11T16:35:29.915Z,3.13
2022-12-11T16:38:38.195Z,3.13
2022-12-11T16:41:53.025Z,3.22
2022-12-11T16:45:01.094Z,3.07
2022-12-11T16:48:09.906Z,3.15
2022-12-11T16:51:25.035Z,3.06
2022-12-11T16:54:26.935Z,3.04
2022-12-11T16:57:42.111Z,2.85
2022-12-11T17:00:52.140Z,2.91
2022-12-11T17:04:01.180Z,2.67
2022-12-11T17:07:11.478Z,2.77
2022-12-11T17:10:26.110Z,2.95
2022-12-11T17:13:36.218Z,2.62
2022-12-11T17:16:51.390Z,2.50
2022-12-11T17:20:00.115Z,2.67
2022-12-11T17:23:17.098Z,2.49
2022-12-11T17:26:32.110Z,2.45
2022-12-11T17:29:34.002Z,2.68
2022-12-11T17:32:49.119Z,2.58
2022-12-11T17:35:51.006Z,2.58
2022-12-11T17:39:06.084Z,2.75
2022-12-11T17:42:08.091Z,2.85
2022-12-11T17:45:23.086Z,2.61
2022-12-11T17:48:24.943Z,2.75
2022-12-11T17:51:41.090Z,2.88
2022-12-11T17:54:42.867Z,3.01
2022-12-11T17:57:58.109Z,2.57
2022-12-11T18:01:07.162Z,2.69
2022-12-11T18:04:22.101Z,2.70
2022-12-11T18:07:23.931Z,2.73
2022-12-11T18:10:43.183Z,2.86
2022-12-11T18:13:45.682Z,2.86
2022-12-11T18:17:00.082Z,2.77
2022-12-11T18:20:12.463Z,2.88
2022-12-11T18:23:27.258Z,2.86
2022-12-11T18:26:29.158Z,2.79
2022-12-11T18:29:44.150Z,2.71
2022-12-11T18:32:52.776Z,2.69
2022-12-11T18:36:01.090Z,2.53
2022-12-11T18:39:16.106Z,2.64
2022-12-11T18:42:32.850Z,2.63
2022-12-11T18:45:49.082Z,2.76
2022-12-11T18:48:50.859Z,2.76
2022-12-11T18:52:05.151Z,2.67
2022-12-11T18:55:20.134Z,2.62
2022-12-11T18:58:35.131Z,2.53
2022-12-11T19:01:43.784Z,2.63
2022-12-11T19:04:53.145Z,2.48
2022-12-11T19:08:02.891Z,2.55
2022-12-11T19:11:12.162Z,2.37
2022-12-11T19:14:27.414Z,2.50
2022-12-11T19:17:43.122Z,2.43
2022-12-11T19:21:04.993Z,2.39
2022-12-11T19:24:20.678Z,2.51
2022-12-11T19:27:35.102Z,2.28
2022-12-11T19:30:51.150Z,2.49
2022-12-11T19:34:00.683Z,2.42
2022-12-11T19:37:09.082Z,2.55
2022-12-11T19:40:21.193Z,2.50
2022-12-11T19:43:36.230Z,2.43
2022-12-11T19:46:38.620Z,2.42
2022-12-11T19:49:53.235Z,2.52
2022-12-11T19:53:01.867Z,2.61
2022-12-11T19:56:17.127Z,2.53
2022-12-11T19:59:18.993Z,2.59
2022-12-11T20:02:34.130Z,2.44
2022-12-11T20:05:42.782Z,2.32
2022-12-11T20:08:51.197Z,2.46
2022-12-11T20:11:59.969Z,2.45
2022-12-11T20:15:08.110Z,2.43
2022-12-11T20:18:18.705Z,2.29
2022-12-11T20:21:34.142Z,2.18
2022-12-11T20:24:36.563Z,2.42
2022-12-11T20:27:51.180Z,2.47
2022-12-11T20:31:20.152Z,2.39
2022-12-11T20:34:22.177Z,2.12
2022-12-11T20:37:37.203Z,2.06
2022-12-11T20:40:46.041Z,2.01
2022-12-11T20:44:01.142Z,2.08
2022-12-11T20:47:09.689Z,2.25
2022-12-11T20:50:18.249Z,2.12
2022-12-11T20:53:33.155Z,1.82
2022-12-11T20:56:48.167Z,2.02
2022-12-11T20:59:56.826Z,2.00
2022-12-11T21:03:05.186Z,1.89
2022-12-11T21:06:21.010Z,1.90
2022-12-11T21:09:36.155Z,1.91
2022-12-11T21:12:51.177Z,2.06
2022-12-11T21:16:05.364Z,1.74
2022-12-11T21:19:21.290Z,1.71
2022-12-11T21:22:30.300Z,1.71
2022-12-11T21:25:39.011Z,1.91
2022-12-11T21:28:47.226Z,1.71
2022-12-11T21:32:03.202Z,1.65
2022-12-11T21:35:05.632Z,1.74
2022-12-11T21:38:20.213Z,1.90
2022-12-11T21:41:36.195Z,1.75
2022-12-11T21:48:13.752Z,1.71
2022-12-11T21:51:36.472Z,1.86
2022-12-11T21:54:52.178Z,1.79
2022-12-11T21:58:00.794Z,1.62
2022-12-11T22:01:11.231Z,1.63
2022-12-11T22:04:20.150Z,1.53
2022-12-11T22:07:28.199Z,1.44
2022-12-11T22:10:37.660Z,1.62
2022-12-11T22:13:53.167Z,1.42
2022-12-11T22:16:55.044Z,1.56
2022-12-11T22:20:12.218Z,1.51
2022-12-11T22:23:21.270Z,1.57
2022-12-11T22:26:37.322Z,1.46
2022-12-11T22:29:45.894Z,1.37
2022-12-11T22:32:54.278Z,1.40
2022-12-11T22:36:03.158Z,1.36
2022-12-11T22:39:11.232Z,1.25
2022-12-11T22:42:27.302Z,1.21
2022-12-11T22:45:29.217Z,1.16
2022-12-11T22:48:44.222Z,1.14
2022-12-11T22:51:46.103Z,1.17
2022-12-11T22:55:01.202Z,1.17
2022-12-11T22:58:03.133Z,1.07
2022-12-11T23:01:23.193Z,1.15
2022-12-11T23:04:25.494Z,1.15
2022-12-11T23:07:40.296Z,1.19
2022-12-11T23:10:55.245Z,1.10
2022-12-11T23:14:22.226Z,1.02
2022-12-11T23:17:30.816Z,0.93
2022-12-11T23:20:42.229Z,0.84
2022-12-11T23:23:57.187Z,0.89
2022-12-11T23:27:06.013Z,0.91
2022-12-11T23:30:21.266Z,1.00
2022-12-11T23:33:30.158Z,0.83
2022-12-11T23:36:45.262Z,0.95
2022-12-11T23:39:53.287Z,1.04
2022-12-11T23:43:08.246Z,1.03
2022-12-11T23:46:21.461Z,0.88
2022-12-11T23:49:30.254Z,0.99
2022-12-11T23:52:38.863Z,0.74
2022-12-11T23:55:50.297Z,0.84
2022-12-11T23:58:58.938Z,0.97
